sensor_id;sensor_type;location;lat;lon;timestamp;temperature;humidity
15259;DHT22;34462;51.368;12.364;2023-04-15T00:00:08;7.30;99.90
15259;DHT22;34462;51.368;12.364;2023-04-15T00:02:38;7.30;99.90
15259;DHT22;34462;51.368;12.364;2023-04-15T00:05:07;7.30;99.90
15259;DHT22;34462;51.368;12.364;2023-04-15T00:07:36;7.20;99.90
15259;DHT22;34462;51.368;12.364;2023-04-15T00:10:05;7.20;99.90
15259;DHT22;34462;51.368;12.364;2023-04-15T00:12:34;7.20;99.90
15259;DHT22;34462;51.368;12.364;2023-04-15T00:15:03;7.20;99.90
15259;DHT22;34462;51.368;12.364;2023-04-15T00:17:32;7.20;99.90
15259;DHT22;34462;51.368;12.364;2023-04-15T00:20:01;7.20;99.90
15259;DHT22;34462;51.368;12.364;2023-04-15T00:22:32;7.20;99.90
15259;DHT22;34462;51.368;12.364;2023-04-15T00:25:00;7.20;99.90
15259;DHT22;34462;51.368;12.364;2023-04-15T00:27:29;7.10;99.90
15259;DHT22;34462;51.368;12.364;2023-04-15T00:29:57;7.10;99.90
15259;DHT22;34462;51.368;12.364;2023-04-15T00:32:25;7.10;99.90
15259;DHT22;34462;51.368;12.364;2023-04-15T00:34:53;7.10;99.90
15259;DHT22;34462;51.368;12.364;2023-04-15T00:37:23;7.10;99.90
15259;DHT22;34462;51.368;12.364;2023-04-15T00:39:51;7.10;99.90
15259;DHT22;34462;51.368;12.364;2023-04-15T00:42:19;7.10;99.90
15259;DHT22;34462;51.368;12.364;2023-04-15T00:44:48;7.00;99.90
15259;DHT22;34462;51.368;12.364;2023-04-15T00:47:17;7.10;99.90
15259;DHT22;34462;51.368;12.364;2023-04-15T00:49:46;7.10;99.90
15259;DHT22;34462;51.368;12.364;2023-04-15T00:52:14;7.10;99.90
15259;DHT22;34462;51.368;12.364;2023-04-15T00:54:44;7.10;99.90
15259;DHT22;34462;51.368;12.364;2023-04-15T00:57:12;7.10;99.90
15259;DHT22;34462;51.368;12.364;2023-04-15T00:59:40;7.10;99.90
15259;DHT22;34462;51.368;12.364;2023-04-15T01:02:09;7.00;99.90
15259;DHT22;34462;51.368;12.364;2023-04-15T01:04:37;7.10;99.90
15259;DHT22;34462;51.368;12.364;2023-04-15T01:07:05;7.10;99.90
15259;DHT22;34462;51.368;12.364;2023-04-15T01:09:34;7.10;99.90
15259;DHT22;34462;51.368;12.364;2023-04-15T01:12:04;7.10;99.90
15259;DHT22;34462;51.368;12.364;2023-04-15T01:14:32;7.10;99.90
15259;DHT22;34462;51.368;12.364;2023-04-15T01:17:01;7.10;99.90
15259;DHT22;34462;51.368;12.364;2023-04-15T01:19:29;7.10;99.90
15259;DHT22;34462;51.368;12.364;2023-04-15T01:21:58;7.10;99.90
15259;DHT22;34462;51.368;12.364;2023-04-15T01:24:28;7.00;99.90
15259;DHT22;34462;51.368;12.364;2023-04-15T01:27:00;7.00;99.90
15259;DHT22;34462;51.368;12.364;2023-04-15T01:29:30;7.00;99.90
15259;DHT22;34462;51.368;12.364;2023-04-15T01:31:58;7.10;99.90
15259;DHT22;34462;51.368;12.364;2023-04-15T01:34:26;7.10;99.90
15259;DHT22;34462;51.368;12.364;2023-04-15T01:36:54;7.00;99.90
15259;DHT22;34462;51.368;12.364;2023-04-15T01:39:22;7.00;99.90
15259;DHT22;34462;51.368;12.364;2023-04-15T01:41:50;7.00;99.90
15259;DHT22;34462;51.368;12.364;2023-04-15T01:44:20;7.00;99.90
15259;DHT22;34462;51.368;12.364;2023-04-15T01:46:48;7.00;99.90
15259;DHT22;34462;51.368;12.364;2023-04-15T01:49:17;7.00;99.90
15259;DHT22;34462;51.368;12.364;2023-04-15T01:51:46;7.00;99.90
15259;DHT22;34462;51.368;12.364;2023-04-15T01:54:14;7.00;99.90
15259;DHT22;34462;51.368;12.364;2023-04-15T01:56:43;7.00;99.90
15259;DHT22;34462;51.368;12.364;2023-04-15T01:59:11;7.00;99.90
15259;DHT22;34462;51.368;12.364;2023-04-15T02:01:40;7.00;99.90
15259;DHT22;34462;51.368;12.364;2023-04-15T02:04:08;7.00;99.90
15259;DHT22;34462;51.368;12.364;2023-04-15T02:06:42;7.00;99.90
15259;DHT22;34462;51.368;12.364;2023-04-15T02:09:10;7.00;99.90
15259;DHT22;34462;51.368;12.364;2023-04-15T02:11:39;6.90;99.90
15259;DHT22;34462;51.368;12.364;2023-04-15T02:14:07;6.90;99.90
15259;DHT22;34462;51.368;12.364;2023-04-15T02:16:35;6.90;99.90
15259;DHT22;34462;51.368;12.364;2023-04-15T02:19:04;7.00;99.90
15259;DHT22;34462;51.368;12.364;2023-04-15T02:21:33;7.00;99.90
15259;DHT22;34462;51.368;12.364;2023-04-15T02:24:02;7.00;99.90
15259;DHT22;34462;51.368;12.364;2023-04-15T02:26:30;7.00;99.90
15259;DHT22;34462;51.368;12.364;2023-04-15T02:28:59;6.90;99.90
15259;DHT22;34462;51.368;12.364;2023-04-15T02:31:27;6.90;99.90
15259;DHT22;34462;51.368;12.364;2023-04-15T02:33:56;6.90;99.90
15259;DHT22;34462;51.368;12.364;2023-04-15T02:36:25;6.90;99.90
15259;DHT22;34462;51.368;12.364;2023-04-15T02:38:55;6.90;99.90
15259;DHT22;34462;51.368;12.364;2023-04-15T02:41:23;6.90;99.90
15259;DHT22;34462;51.368;12.364;2023-04-15T02:43:53;6.80;99.90
15259;DHT22;34462;51.368;12.364;2023-04-15T02:46:22;6.80;99.90
15259;DHT22;34462;51.368;12.364;2023-04-15T02:48:50;6.80;99.90
15259;DHT22;34462;51.368;12.364;2023-04-15T02:51:20;6.80;99.90
15259;DHT22;34462;51.368;12.364;2023-04-15T02:53:50;6.80;99.90
15259;DHT22;34462;51.368;12.364;2023-04-15T02:56:18;6.80;99.90
15259;DHT22;34462;51.368;12.364;2023-04-15T02:58:48;6.90;99.90
15259;DHT22;34462;51.368;12.364;2023-04-15T03:01:17;6.80;99.90
15259;DHT22;34462;51.368;12.364;2023-04-15T03:03:46;6.80;99.90
15259;DHT22;34462;51.368;12.364;2023-04-15T03:06:14;6.90;99.90
15259;DHT22;34462;51.368;12.364;2023-04-15T03:08:42;6.90;99.90
15259;DHT22;34462;51.368;12.364;2023-04-15T03:11:13;6.90;99.90
15259;DHT22;34462;51.368;12.364;2023-04-15T03:13:41;6.90;99.90
15259;DHT22;34462;51.368;12.364;2023-04-15T03:16:10;6.80;99.90
15259;DHT22;34462;51.368;12.364;2023-04-15T03:18:38;6.90;99.90
15259;DHT22;34462;51.368;12.364;2023-04-15T03:21:06;6.80;99.90
15259;DHT22;34462;51.368;12.364;2023-04-15T03:23:34;6.80;99.90
15259;DHT22;34462;51.368;12.364;2023-04-15T03:26:03;6.80;99.90
15259;DHT22;34462;51.368;12.364;2023-04-15T03:28:33;6.80;99.90
15259;DHT22;34462;51.368;12.364;2023-04-15T03:31:01;6.90;99.90
15259;DHT22;34462;51.368;12.364;2023-04-15T03:33:29;6.90;99.90
15259;DHT22;34462;51.368;12.364;2023-04-15T03:35:57;6.90;99.90
15259;DHT22;34462;51.368;12.364;2023-04-15T03:38:26;6.80;99.90
15259;DHT22;34462;51.368;12.364;2023-04-15T03:40:54;6.90;99.90
15259;DHT22;34462;51.368;12.364;2023-04-15T03:43:22;6.80;99.90
15259;DHT22;34462;51.368;12.364;2023-04-15T03:45:52;6.80;99.90
15259;DHT22;34462;51.368;12.364;2023-04-15T03:48:20;6.80;99.90
15259;DHT22;34462;51.368;12.364;2023-04-15T03:50:48;6.80;99.90
15259;DHT22;34462;51.368;12.364;2023-04-15T03:53:16;6.80;99.90
15259;DHT22;34462;51.368;12.364;2023-04-15T03:55:44;6.90;99.90
15259;DHT22;34462;51.368;12.364;2023-04-15T03:58:13;6.80;99.90
15259;DHT22;34462;51.368;12.364;2023-04-15T04:00:41;6.80;99.90
15259;DHT22;34462;51.368;12.364;2023-04-15T04:03:11;6.80;99.90
15259;DHT22;34462;51.368;12.364;2023-04-15T04:05:39;6.80;99.90
15259;DHT22;34462;51.368;12.364;2023-04-15T04:08:08;6.80;99.90
15259;DHT22;34462;51.368;12.364;2023-04-15T04:10:39;6.80;99.90
15259;DHT22;34462;51.368;12.364;2023-04-15T04:13:07;6.80;99.90
15259;DHT22;34462;51.368;12.364;2023-04-15T04:15:35;6.80;99.90
15259;DHT22;34462;51.368;12.364;2023-04-15T04:18:03;6.80;99.90
15259;DHT22;34462;51.368;12.364;2023-04-15T04:20:33;6.80;99.90
15259;DHT22;34462;51.368;12.364;2023-04-15T04:23:01;6.90;99.90
15259;DHT22;34462;51.368;12.364;2023-04-15T04:25:29;6.90;99.90
15259;DHT22;34462;51.368;12.364;2023-04-15T04:27:58;6.90;99.90
15259;DHT22;34462;51.368;12.364;2023-04-15T04:30:26;6.90;99.90
15259;DHT22;34462;51.368;12.364;2023-04-15T04:32:55;6.90;99.90
15259;DHT22;34462;51.368;12.364;2023-04-15T04:35:23;6.90;99.90
15259;DHT22;34462;51.368;12.364;2023-04-15T04:37:52;6.90;99.90
15259;DHT22;34462;51.368;12.364;2023-04-15T04:40:20;6.90;99.90
15259;DHT22;34462;51.368;12.364;2023-04-15T04:42:48;6.90;99.90
15259;DHT22;34462;51.368;12.364;2023-04-15T04:45:17;6.90;99.90
15259;DHT22;34462;51.368;12.364;2023-04-15T04:47:45;6.90;99.90
15259;DHT22;34462;51.368;12.364;2023-04-15T04:50:13;6.90;99.90
15259;DHT22;34462;51.368;12.364;2023-04-15T04:52:42;7.00;99.90
15259;DHT22;34462;51.368;12.364;2023-04-15T04:55:11;7.00;99.90
15259;DHT22;34462;51.368;12.364;2023-04-15T04:57:39;7.00;99.90
15259;DHT22;34462;51.368;12.364;2023-04-15T05:00:08;6.90;99.90
15259;DHT22;34462;51.368;12.364;2023-04-15T05:02:38;7.00;99.90
15259;DHT22;34462;51.368;12.364;2023-04-15T05:05:08;6.90;99.90
15259;DHT22;34462;51.368;12.364;2023-04-15T05:07:37;6.90;99.90
15259;DHT22;34462;51.368;12.364;2023-04-15T05:10:07;6.90;99.90
15259;DHT22;34462;51.368;12.364;2023-04-15T05:12:37;7.00;99.90
15259;DHT22;34462;51.368;12.364;2023-04-15T05:15:06;7.00;99.90
15259;DHT22;34462;51.368;12.364;2023-04-15T05:17:35;7.00;99.90
15259;DHT22;34462;51.368;12.364;2023-04-15T05:20:04;7.00;99.90
15259;DHT22;34462;51.368;12.364;2023-04-15T05:22:33;7.00;99.90
15259;DHT22;34462;51.368;12.364;2023-04-15T05:25:01;7.00;99.90
15259;DHT22;34462;51.368;12.364;2023-04-15T05:27:30;7.00;99.90
15259;DHT22;34462;51.368;12.364;2023-04-15T05:30:00;7.00;99.90
15259;DHT22;34462;51.368;12.364;2023-04-15T05:32:28;7.00;99.90
15259;DHT22;34462;51.368;12.364;2023-04-15T05:34:56;7.10;99.90
15259;DHT22;34462;51.368;12.364;2023-04-15T05:37:24;7.00;99.90
15259;DHT22;34462;51.368;12.364;2023-04-15T05:39:53;7.00;99.90
15259;DHT22;34462;51.368;12.364;2023-04-15T05:42:21;7.00;99.90
15259;DHT22;34462;51.368;12.364;2023-04-15T05:44:49;7.00;99.90
15259;DHT22;34462;51.368;12.364;2023-04-15T05:47:19;7.10;99.90
15259;DHT22;34462;51.368;12.364;2023-04-15T05:49:47;7.10;99.90
15259;DHT22;34462;51.368;12.364;2023-04-15T05:52:15;7.20;99.90
15259;DHT22;34462;51.368;12.364;2023-04-15T05:54:43;7.10;99.90
15259;DHT22;34462;51.368;12.364;2023-04-15T05:57:12;7.10;99.90
15259;DHT22;34462;51.368;12.364;2023-04-15T05:59:40;7.10;99.90
15259;DHT22;34462;51.368;12.364;2023-04-15T06:02:09;7.20;99.90
15259;DHT22;34462;51.368;12.364;2023-04-15T06:04:39;7.10;99.90
15259;DHT22;34462;51.368;12.364;2023-04-15T06:07:07;7.10;99.90
15259;DHT22;34462;51.368;12.364;2023-04-15T06:09:35;7.10;99.90
15259;DHT22;34462;51.368;12.364;2023-04-15T06:12:05;7.20;99.90
15259;DHT22;34462;51.368;12.364;2023-04-15T06:14:37;7.20;99.90
15259;DHT22;34462;51.368;12.364;2023-04-15T06:17:06;7.20;99.90
15259;DHT22;34462;51.368;12.364;2023-04-15T06:19:34;7.20;99.90
15259;DHT22;34462;51.368;12.364;2023-04-15T06:22:04;7.30;99.90
15259;DHT22;34462;51.368;12.364;2023-04-15T06:24:35;7.40;99.90
15259;DHT22;34462;51.368;12.364;2023-04-15T06:27:03;7.30;99.90
15259;DHT22;34462;51.368;12.364;2023-04-15T06:29:31;7.40;99.90
15259;DHT22;34462;51.368;12.364;2023-04-15T06:31:59;7.40;99.90
15259;DHT22;34462;51.368;12.364;2023-04-15T06:34:28;7.30;99.90
15259;DHT22;34462;51.368;12.364;2023-04-15T06:36:56;7.30;99.90
15259;DHT22;34462;51.368;12.364;2023-04-15T06:39:25;7.30;99.90
15259;DHT22;34462;51.368;12.364;2023-04-15T06:41:54;7.30;99.90
15259;DHT22;34462;51.368;12.364;2023-04-15T06:44:22;7.30;99.90
15259;DHT22;34462;51.368;12.364;2023-04-15T06:46:50;7.40;99.90
15259;DHT22;34462;51.368;12.364;2023-04-15T06:49:18;7.40;99.90
15259;DHT22;34462;51.368;12.364;2023-04-15T06:51:46;7.40;99.90
15259;DHT22;34462;51.368;12.364;2023-04-15T06:54:15;7.50;99.90
15259;DHT22;34462;51.368;12.364;2023-04-15T06:56:44;7.50;99.90
15259;DHT22;34462;51.368;12.364;2023-04-15T06:59:13;7.50;99.90
15259;DHT22;34462;51.368;12.364;2023-04-15T07:01:41;7.50;99.90
15259;DHT22;34462;51.368;12.364;2023-04-15T07:04:09;7.50;99.90
15259;DHT22;34462;51.368;12.364;2023-04-15T07:06:38;7.50;99.90
15259;DHT22;34462;51.368;12.364;2023-04-15T07:09:07;7.50;99.90
15259;DHT22;34462;51.368;12.364;2023-04-15T07:11:35;7.60;99.90
15259;DHT22;34462;51.368;12.364;2023-04-15T07:14:05;7.60;99.90
15259;DHT22;34462;51.368;12.364;2023-04-15T07:16:33;7.60;99.90
15259;DHT22;34462;51.368;12.364;2023-04-15T07:19:01;7.60;99.90
15259;DHT22;34462;51.368;12.364;2023-04-15T07:21:30;7.60;99.90
15259;DHT22;34462;51.368;12.364;2023-04-15T07:23:58;7.60;99.90
15259;DHT22;34462;51.368;12.364;2023-04-15T07:26:26;7.60;99.90
15259;DHT22;34462;51.368;12.364;2023-04-15T07:28:54;7.60;99.90
15259;DHT22;34462;51.368;12.364;2023-04-15T07:31:24;7.60;99.90
15259;DHT22;34462;51.368;12.364;2023-04-15T07:33:53;7.60;99.90
15259;DHT22;34462;51.368;12.364;2023-04-15T07:36:21;7.70;99.90
15259;DHT22;34462;51.368;12.364;2023-04-15T07:38:50;7.60;99.90
15259;DHT22;34462;51.368;12.364;2023-04-15T07:41:18;7.60;99.90
15259;DHT22;34462;51.368;12.364;2023-04-15T07:43:46;7.70;99.90
15259;DHT22;34462;51.368;12.364;2023-04-15T07:46:15;7.70;99.90
15259;DHT22;34462;51.368;12.364;2023-04-15T07:48:45;7.80;99.90
15259;DHT22;34462;51.368;12.364;2023-04-15T07:51:13;7.80;99.90
15259;DHT22;34462;51.368;12.364;2023-04-15T07:53:41;7.80;99.90
15259;DHT22;34462;51.368;12.364;2023-04-15T07:56:10;7.80;99.90
15259;DHT22;34462;51.368;12.364;2023-04-15T07:58:38;7.80;99.90
15259;DHT22;34462;51.368;12.364;2023-04-15T08:01:07;7.90;99.90
15259;DHT22;34462;51.368;12.364;2023-04-15T08:03:35;7.90;99.90
15259;DHT22;34462;51.368;12.364;2023-04-15T08:06:05;7.90;99.90
15259;DHT22;34462;51.368;12.364;2023-04-15T08:08:33;7.90;99.90
15259;DHT22;34462;51.368;12.364;2023-04-15T08:11:01;7.90;99.90
15259;DHT22;34462;51.368;12.364;2023-04-15T08:13:29;7.90;99.90
15259;DHT22;34462;51.368;12.364;2023-04-15T08:16:17;7.90;99.90
15259;DHT22;34462;51.368;12.364;2023-04-15T08:18:47;8.00;99.90
15259;DHT22;34462;51.368;12.364;2023-04-15T08:21:18;8.00;99.90
15259;DHT22;34462;51.368;12.364;2023-04-15T08:23:48;8.00;99.90
15259;DHT22;34462;51.368;12.364;2023-04-15T08:26:18;8.00;99.90
15259;DHT22;34462;51.368;12.364;2023-04-15T08:28:48;8.10;99.90
15259;DHT22;34462;51.368;12.364;2023-04-15T08:31:17;8.10;99.90
15259;DHT22;34462;51.368;12.364;2023-04-15T08:33:46;8.10;99.90
15259;DHT22;34462;51.368;12.364;2023-04-15T08:36:14;8.20;99.90
15259;DHT22;34462;51.368;12.364;2023-04-15T08:38:44;8.20;99.90
15259;DHT22;34462;51.368;12.364;2023-04-15T08:41:20;8.20;99.90
15259;DHT22;34462;51.368;12.364;2023-04-15T08:43:56;8.20;99.90
15259;DHT22;34462;51.368;12.364;2023-04-15T08:46:25;8.20;99.90
15259;DHT22;34462;51.368;12.364;2023-04-15T08:48:56;8.20;99.90
15259;DHT22;34462;51.368;12.364;2023-04-15T08:51:27;8.20;99.90
15259;DHT22;34462;51.368;12.364;2023-04-15T08:53:56;8.30;99.90
15259;DHT22;34462;51.368;12.364;2023-04-15T08:56:27;8.30;99.90
15259;DHT22;34462;51.368;12.364;2023-04-15T08:58:59;8.40;99.90
15259;DHT22;34462;51.368;12.364;2023-04-15T09:01:27;8.40;99.90
15259;DHT22;34462;51.368;12.364;2023-04-15T09:03:56;8.40;99.90
15259;DHT22;34462;51.368;12.364;2023-04-15T09:06:26;8.50;99.90
15259;DHT22;34462;51.368;12.364;2023-04-15T09:08:54;8.40;99.90
15259;DHT22;34462;51.368;12.364;2023-04-15T09:11:24;8.50;99.90
15259;DHT22;34462;51.368;12.364;2023-04-15T09:13:52;8.50;99.90
15259;DHT22;34462;51.368;12.364;2023-04-15T09:16:21;8.50;99.90
15259;DHT22;34462;51.368;12.364;2023-04-15T09:18:49;8.50;99.90
15259;DHT22;34462;51.368;12.364;2023-04-15T09:21:18;8.60;99.90
15259;DHT22;34462;51.368;12.364;2023-04-15T09:23:57;8.60;99.90
15259;DHT22;34462;51.368;12.364;2023-04-15T09:26:33;8.70;99.90
15259;DHT22;34462;51.368;12.364;2023-04-15T09:29:04;8.70;99.90
15259;DHT22;34462;51.368;12.364;2023-04-15T09:31:33;8.80;99.90
15259;DHT22;34462;51.368;12.364;2023-04-15T09:34:02;8.70;99.90
15259;DHT22;34462;51.368;12.364;2023-04-15T09:36:37;8.80;99.90
15259;DHT22;34462;51.368;12.364;2023-04-15T09:39:19;8.80;99.90
15259;DHT22;34462;51.368;12.364;2023-04-15T09:44:42;8.80;99.90
15259;DHT22;34462;51.368;12.364;2023-04-15T09:47:26;8.90;99.90
15259;DHT22;34462;51.368;12.364;2023-04-15T09:49:56;8.90;99.90
15259;DHT22;34462;51.368;12.364;2023-04-15T09:52:25;8.90;99.90
15259;DHT22;34462;51.368;12.364;2023-04-15T09:54:55;9.00;99.90
15259;DHT22;34462;51.368;12.364;2023-04-15T09:57:25;9.00;99.90
15259;DHT22;34462;51.368;12.364;2023-04-15T10:00:02;9.00;99.90
15259;DHT22;34462;51.368;12.364;2023-04-15T10:02:31;9.00;99.90
15259;DHT22;34462;51.368;12.364;2023-04-15T10:05:00;9.00;99.90
15259;DHT22;34462;51.368;12.364;2023-04-15T10:07:29;9.00;99.90
15259;DHT22;34462;51.368;12.364;2023-04-15T10:09:59;9.10;99.90
15259;DHT22;34462;51.368;12.364;2023-04-15T10:12:28;9.10;99.90
15259;DHT22;34462;51.368;12.364;2023-04-15T10:15:04;9.10;99.90
15259;DHT22;34462;51.368;12.364;2023-04-15T10:17:33;9.10;99.90
15259;DHT22;34462;51.368;12.364;2023-04-15T10:20:04;9.20;99.90
15259;DHT22;34462;51.368;12.364;2023-04-15T10:22:35;9.20;99.90
15259;DHT22;34462;51.368;12.364;2023-04-15T10:25:05;9.30;99.90
15259;DHT22;34462;51.368;12.364;2023-04-15T10:27:35;9.30;99.90
15259;DHT22;34462;51.368;12.364;2023-04-15T10:30:06;9.30;99.90
15259;DHT22;34462;51.368;12.364;2023-04-15T10:32:35;9.30;99.90
15259;DHT22;34462;51.368;12.364;2023-04-15T10:35:05;9.30;99.90
15259;DHT22;34462;51.368;12.364;2023-04-15T10:37:36;9.30;99.90
15259;DHT22;34462;51.368;12.364;2023-04-15T10:40:26;9.30;99.90
15259;DHT22;34462;51.368;12.364;2023-04-15T10:42:58;9.40;99.90
15259;DHT22;34462;51.368;12.364;2023-04-15T10:45:32;9.40;99.90
15259;DHT22;34462;51.368;12.364;2023-04-15T10:48:03;9.40;99.90
15259;DHT22;34462;51.368;12.364;2023-04-15T10:50:36;9.50;99.90
15259;DHT22;34462;51.368;12.364;2023-04-15T10:53:05;9.50;99.90
15259;DHT22;34462;51.368;12.364;2023-04-15T10:55:36;9.50;99.90
15259;DHT22;34462;51.368;12.364;2023-04-15T10:58:05;9.60;99.90
15259;DHT22;34462;51.368;12.364;2023-04-15T11:00:36;9.60;99.90
15259;DHT22;34462;51.368;12.364;2023-04-15T11:03:06;9.50;99.90
15259;DHT22;34462;51.368;12.364;2023-04-15T11:05:53;9.60;99.90
15259;DHT22;34462;51.368;12.364;2023-04-15T11:08:52;9.70;99.90
15259;DHT22;34462;51.368;12.364;2023-04-15T11:14:33;9.70;99.90
15259;DHT22;34462;51.368;12.364;2023-04-15T11:17:07;9.70;99.90
15259;DHT22;34462;51.368;12.364;2023-04-15T11:19:36;9.70;99.90
15259;DHT22;34462;51.368;12.364;2023-04-15T11:22:08;9.80;99.90
15259;DHT22;34462;51.368;12.364;2023-04-15T11:24:46;9.90;99.90
15259;DHT22;34462;51.368;12.364;2023-04-15T11:27:22;10.00;99.90
15259;DHT22;34462;51.368;12.364;2023-04-15T11:29:50;10.00;99.90
15259;DHT22;34462;51.368;12.364;2023-04-15T11:32:20;9.90;99.90
15259;DHT22;34462;51.368;12.364;2023-04-15T11:34:50;9.90;99.90
15259;DHT22;34462;51.368;12.364;2023-04-15T11:37:27;9.90;99.90
15259;DHT22;34462;51.368;12.364;2023-04-15T11:39:56;9.90;99.90
15259;DHT22;34462;51.368;12.364;2023-04-15T11:42:24;9.90;99.90
15259;DHT22;34462;51.368;12.364;2023-04-15T11:45:09;9.90;99.90
15259;DHT22;34462;51.368;12.364;2023-04-15T11:47:41;9.90;99.90
15259;DHT22;34462;51.368;12.364;2023-04-15T11:50:13;9.90;99.90
15259;DHT22;34462;51.368;12.364;2023-04-15T11:52:52;9.80;99.90
15259;DHT22;34462;51.368;12.364;2023-04-15T11:55:20;9.90;99.90
15259;DHT22;34462;51.368;12.364;2023-04-15T11:58:04;9.90;99.90
15259;DHT22;34462;51.368;12.364;2023-04-15T12:00:34;10.00;99.90
15259;DHT22;34462;51.368;12.364;2023-04-15T12:03:14;10.00;99.90
15259;DHT22;34462;51.368;12.364;2023-04-15T12:06:19;10.00;99.90
15259;DHT22;34462;51.368;12.364;2023-04-15T12:08:55;10.00;99.90
15259;DHT22;34462;51.368;12.364;2023-04-15T12:11:39;10.10;99.90
15259;DHT22;34462;51.368;12.364;2023-04-15T12:14:11;10.10;99.90
15259;DHT22;34462;51.368;12.364;2023-04-15T12:16:44;10.10;99.90
15259;DHT22;34462;51.368;12.364;2023-04-15T12:19:23;10.00;99.90
15259;DHT22;34462;51.368;12.364;2023-04-15T12:21:58;10.00;99.90
15259;DHT22;34462;51.368;12.364;2023-04-15T12:24:29;10.00;99.90
15259;DHT22;34462;51.368;12.364;2023-04-15T12:27:01;10.00;99.90
15259;DHT22;34462;51.368;12.364;2023-04-15T12:29:31;10.10;99.90
15259;DHT22;34462;51.368;12.364;2023-04-15T12:32:04;10.10;99.90
15259;DHT22;34462;51.368;12.364;2023-04-15T12:34:36;10.20;99.90
15259;DHT22;34462;51.368;12.364;2023-04-15T12:37:08;10.30;99.90
15259;DHT22;34462;51.368;12.364;2023-04-15T12:39:39;10.50;99.90
15259;DHT22;34462;51.368;12.364;2023-04-15T12:42:09;10.50;99.90
15259;DHT22;34462;51.368;12.364;2023-04-15T12:44:38;10.50;99.90
15259;DHT22;34462;51.368;12.364;2023-04-15T12:47:08;10.60;99.90
15259;DHT22;34462;51.368;12.364;2023-04-15T12:49:38;10.70;99.90
15259;DHT22;34462;51.368;12.364;2023-04-15T12:52:07;10.80;99.90
15259;DHT22;34462;51.368;12.364;2023-04-15T12:54:35;10.80;99.90
15259;DHT22;34462;51.368;12.364;2023-04-15T12:57:03;10.90;99.90
15259;DHT22;34462;51.368;12.364;2023-04-15T12:59:33;10.90;99.90
15259;DHT22;34462;51.368;12.364;2023-04-15T13:02:02;11.00;99.90
15259;DHT22;34462;51.368;12.364;2023-04-15T13:04:31;11.00;99.90
15259;DHT22;34462;51.368;12.364;2023-04-15T13:07:00;11.00;99.90
15259;DHT22;34462;51.368;12.364;2023-04-15T13:09:29;10.90;99.90
15259;DHT22;34462;51.368;12.364;2023-04-15T13:11:58;10.80;99.90
15259;DHT22;34462;51.368;12.364;2023-04-15T13:14:26;10.80;99.90
15259;DHT22;34462;51.368;12.364;2023-04-15T13:16:54;10.60;99.90
15259;DHT22;34462;51.368;12.364;2023-04-15T13:19:22;10.60;99.90
15259;DHT22;34462;51.368;12.364;2023-04-15T13:21:50;10.70;99.90
15259;DHT22;34462;51.368;12.364;2023-04-15T13:24:20;10.70;99.90
15259;DHT22;34462;51.368;12.364;2023-04-15T13:26:48;10.80;99.90
15259;DHT22;34462;51.368;12.364;2023-04-15T13:29:16;10.70;99.90
15259;DHT22;34462;51.368;12.364;2023-04-15T13:31:44;10.70;99.90
15259;DHT22;34462;51.368;12.364;2023-04-15T13:34:12;10.60;99.90
15259;DHT22;34462;51.368;12.364;2023-04-15T13:36:41;10.60;99.90
15259;DHT22;34462;51.368;12.364;2023-04-15T13:39:09;10.50;99.90
15259;DHT22;34462;51.368;12.364;2023-04-15T13:41:39;10.50;99.90
15259;DHT22;34462;51.368;12.364;2023-04-15T13:44:07;10.50;99.90
15259;DHT22;34462;51.368;12.364;2023-04-15T13:46:35;10.60;99.90
15259;DHT22;34462;51.368;12.364;2023-04-15T13:49:05;10.60;99.90
15259;DHT22;34462;51.368;12.364;2023-04-15T13:51:33;10.60;99.90
15259;DHT22;34462;51.368;12.364;2023-04-15T13:54:02;10.60;99.90
15259;DHT22;34462;51.368;12.364;2023-04-15T13:56:31;10.70;99.90
15259;DHT22;34462;51.368;12.364;2023-04-15T13:59:01;10.70;99.90
15259;DHT22;34462;51.368;12.364;2023-04-15T14:01:29;10.70;99.90
15259;DHT22;34462;51.368;12.364;2023-04-15T14:03:58;10.70;99.90
15259;DHT22;34462;51.368;12.364;2023-04-15T14:06:26;10.70;99.90
15259;DHT22;34462;51.368;12.364;2023-04-15T14:08:56;10.70;99.90
15259;DHT22;34462;51.368;12.364;2023-04-15T14:11:24;10.70;99.90
15259;DHT22;34462;51.368;12.364;2023-04-15T14:13:53;10.70;99.90
15259;DHT22;34462;51.368;12.364;2023-04-15T14:16:22;10.70;99.90
15259;DHT22;34462;51.368;12.364;2023-04-15T14:18:50;10.60;99.90
15259;DHT22;34462;51.368;12.364;2023-04-15T14:21:18;10.70;99.90
15259;DHT22;34462;51.368;12.364;2023-04-15T14:23:47;10.60;99.90
15259;DHT22;34462;51.368;12.364;2023-04-15T14:26:15;10.50;99.90
15259;DHT22;34462;51.368;12.364;2023-04-15T14:28:43;10.50;99.90
15259;DHT22;34462;51.368;12.364;2023-04-15T14:31:11;10.50;99.90
15259;DHT22;34462;51.368;12.364;2023-04-15T14:33:41;10.50;99.90
15259;DHT22;34462;51.368;12.364;2023-04-15T14:36:09;10.50;99.90
15259;DHT22;34462;51.368;12.364;2023-04-15T14:38:37;10.50;99.90
15259;DHT22;34462;51.368;12.364;2023-04-15T14:41:07;10.50;99.90
15259;DHT22;34462;51.368;12.364;2023-04-15T14:43:35;10.50;99.90
15259;DHT22;34462;51.368;12.364;2023-04-15T14:46:04;10.50;99.90
15259;DHT22;34462;51.368;12.364;2023-04-15T14:48:34;10.50;99.90
15259;DHT22;34462;51.368;12.364;2023-04-15T14:51:04;10.50;99.90
15259;DHT22;34462;51.368;12.364;2023-04-15T14:53:32;10.50;99.90
15259;DHT22;34462;51.368;12.364;2023-04-15T14:56:00;10.50;99.90
15259;DHT22;34462;51.368;12.364;2023-04-15T14:58:29;10.40;99.90
15259;DHT22;34462;51.368;12.364;2023-04-15T15:00:58;10.40;99.90
15259;DHT22;34462;51.368;12.364;2023-04-15T15:03:27;10.40;99.90
15259;DHT22;34462;51.368;12.364;2023-04-15T15:05:56;10.30;99.90
15259;DHT22;34462;51.368;12.364;2023-04-15T15:08:25;10.40;99.90
15259;DHT22;34462;51.368;12.364;2023-04-15T15:10:53;10.40;99.90
15259;DHT22;34462;51.368;12.364;2023-04-15T15:13:22;10.40;99.90
15259;DHT22;34462;51.368;12.364;2023-04-15T15:15:51;10.50;99.90
15259;DHT22;34462;51.368;12.364;2023-04-15T15:18:19;10.60;99.90
15259;DHT22;34462;51.368;12.364;2023-04-15T15:20:47;10.60;99.90
15259;DHT22;34462;51.368;12.364;2023-04-15T15:23:15;10.60;99.90
15259;DHT22;34462;51.368;12.364;2023-04-15T15:25:46;10.70;99.90
15259;DHT22;34462;51.368;12.364;2023-04-15T15:28:14;10.60;99.90
15259;DHT22;34462;51.368;12.364;2023-04-15T15:30:42;10.70;99.90
15259;DHT22;34462;51.368;12.364;2023-04-15T15:33:11;10.70;99.90
15259;DHT22;34462;51.368;12.364;2023-04-15T15:35:39;10.70;99.90
15259;DHT22;34462;51.368;12.364;2023-04-15T15:38:08;10.70;99.90
15259;DHT22;34462;51.368;12.364;2023-04-15T15:40:38;10.80;99.90
15259;DHT22;34462;51.368;12.364;2023-04-15T15:43:08;10.80;99.90
15259;DHT22;34462;51.368;12.364;2023-04-15T15:45:36;10.80;99.90
15259;DHT22;34462;51.368;12.364;2023-04-15T15:48:05;10.80;99.90